Time;durP1;ratioP1;P1;durP2;ratioP2;P2;SDS_P1;SDS_P2;PMS_P1;PMS_P2;Temp;Humidity;BMP_temperature;BMP_pressure;BME280_temperature;BME280_humidity;BME280_pressure;Samples;Min_cycle;Max_cycle;Signal;HPM_P1;HPM_P2
2023/04/19 00:00:11;;;;;;;;;;;20.70;99.90;;;;;;5109245;27;19998;-61
2023/04/19 00:02:38;;;;;;;;;;;20.70;99.90;;;;;;5104068;27;19914;-67
2023/04/19 00:05:05;;;;;;;;;;;20.70;99.90;;;;;;5101811;27;20080;-65
2023/04/19 00:07:31;;;;;;;;;;;20.50;99.90;;;;;;5112946;27;19921;-64
2023/04/19 00:09:58;;;;;;;;;;;20.60;99.90;;;;;;5093147;27;20019;-64
2023/04/19 00:12:24;;;;;;;;;;;20.70;99.90;;;;;;5094402;27;20346;-67
2023/04/19 00:14:51;;;;;;;;;;;20.70;99.90;;;;;;5106458;27;20190;-65
2023/04/19 00:17:18;;;;;;;;;;;20.90;99.90;;;;;;5103857;27;19920;-66
2023/04/19 00:19:45;;;;;;;;;;;21.10;99.90;;;;;;5083705;27;19916;-65
2023/04/19 00:22:12;;;;;;;;;;;21.30;99.90;;;;;;5080893;28;19912;-64
2023/04/19 00:24:39;;;;;;;;;;;21.40;99.90;;;;;;5077128;28;19974;-68
2023/04/19 00:27:05;;;;;;;;;;;21.60;99.90;;;;;;5076346;28;19998;-66
2023/04/19 00:29:32;;;;;;;;;;;21.50;99.90;;;;;;5076094;28;19918;-65
2023/04/19 00:31:59;;;;;;;;;;;21.50;99.90;;;;;;5093478;28;19951;-65
2023/04/19 00:34:25;;;;;;;;;;;21.50;99.90;;;;;;5077292;28;20018;-68
2023/04/19 00:36:52;;;;;;;;;;;21.40;99.90;;;;;;5070573;28;19912;-67
2023/04/19 00:39:19;;;;;;;;;;;21.30;99.90;;;;;;5096234;28;19915;-64
2023/04/19 00:41:45;;;;;;;;;;;21.20;99.90;;;;;;5097683;28;19908;-62
2023/04/19 00:44:12;;;;;;;;;;;21.00;99.90;;;;;;5096979;28;19912;-63
2023/04/19 00:46:39;;;;;;;;;;;21.10;99.90;;;;;;5097695;28;19915;-65
2023/04/19 00:49:06;;;;;;;;;;;21.20;99.90;;;;;;5079514;28;19916;-61
2023/04/19 00:51:33;;;;;;;;;;;21.20;99.90;;;;;;5086483;28;20461;-67
2023/04/19 00:54:01;;;;;;;;;;;21.20;99.90;;;;;;5081155;27;20053;-63
2023/04/19 00:56:28;;;;;;;;;;;21.30;99.90;;;;;;5099119;27;19912;-68
2023/04/19 00:58:56;;;;;;;;;;;21.30;99.90;;;;;;5093659;27;20299;-69
2023/04/19 01:01:22;;;;;;;;;;;21.60;99.90;;;;;;5093719;27;20490;-65
2023/04/19 01:03:49;;;;;;;;;;;21.70;99.90;;;;;;5096338;27;19927;-64
2023/04/19 01:06:16;;;;;;;;;;;21.90;99.90;;;;;;5112661;27;19911;-67
2023/04/19 01:08:42;;;;;;;;;;;21.90;99.90;;;;;;5095988;27;20165;-67
2023/04/19 01:11:09;;;;;;;;;;;22.10;99.90;;;;;;5096557;27;20376;-62
2023/04/19 01:13:36;;;;;;;;;;;22.20;99.90;;;;;;5108593;27;19915;-62
2023/04/19 01:16:02;;;;;;;;;;;22.30;99.90;;;;;;5100142;27;19961;-68
2023/04/19 01:18:36;;;;;;;;;;;22.40;99.90;;;;;;5086202;27;20110;-62
2023/04/19 01:21:03;;;;;;;;;;;22.50;99.90;;;;;;5106964;27;19921;-65
2023/04/19 01:23:30;;;;;;;;;;;22.60;99.90;;;;;;5108925;27;20358;-64
2023/04/19 01:25:56;;;;;;;;;;;22.70;99.90;;;;;;5099763;27;19907;-66
2023/04/19 01:28:23;;;;;;;;;;;22.80;99.90;;;;;;5092095;27;19911;-68
2023/04/19 01:30:50;;;;;;;;;;;23.00;99.90;;;;;;5093038;28;19964;-67
2023/04/19 01:33:16;;;;;;;;;;;23.10;99.90;;;;;;5093221;28;20202;-68
2023/04/19 01:35:43;;;;;;;;;;;23.30;99.90;;;;;;5098424;28;19920;-69
2023/04/19 01:38:10;;;;;;;;;;;23.50;99.90;;;;;;5067609;28;19961;-70
2023/04/19 01:40:36;;;;;;;;;;;23.60;99.60;;;;;;5113187;27;19908;-67
2023/04/19 01:43:03;;;;;;;;;;;23.90;99.90;;;;;;5110594;27;19997;-70
2023/04/19 01:45:32;;;;;;;;;;;24.10;98.50;;;;;;5106514;27;19908;-68
2023/04/19 01:48:00;;;;;;;;;;;24.40;99.00;;;;;;5091222;27;20064;-70
2023/04/19 01:50:26;;;;;;;;;;;24.60;97.90;;;;;;5116322;27;19908;-67
2023/04/19 01:52:53;;;;;;;;;;;24.90;97.70;;;;;;5095424;27;20378;-69
2023/04/19 01:55:20;;;;;;;;;;;25.20;97.00;;;;;;5107501;27;19911;-66
2023/04/19 01:57:46;;;;;;;;;;;25.50;95.70;;;;;;5104670;27;19908;-65
2023/04/19 02:00:14;;;;;;;;;;;25.60;94.90;;;;;;5115761;27;19912;-65
2023/04/19 02:02:41;;;;;;;;;;;25.80;94.40;;;;;;5093601;27;19911;-68
2023/04/19 02:05:07;;;;;;;;;;;25.80;93.90;;;;;;5090510;28;20334;-70
2023/04/19 02:07:34;;;;;;;;;;;26.00;93.80;;;;;;5087986;28;19919;-71
2023/04/19 02:10:01;;;;;;;;;;;26.00;93.60;;;;;;5105641;27;19911;-65
2023/04/19 02:12:29;;;;;;;;;;;26.00;93.80;;;;;;5089099;27;19920;-66
2023/04/19 02:14:56;;;;;;;;;;;26.10;93.50;;;;;;5082031;28;20449;-70
2023/04/19 02:17:23;;;;;;;;;;;26.10;93.30;;;;;;5078027;28;19915;-69
2023/04/19 02:19:50;;;;;;;;;;;26.20;93.60;;;;;;5112425;27;19907;-67
2023/04/19 02:22:17;;;;;;;;;;;26.40;93.50;;;;;;5085556;27;19916;-65
2023/04/19 02:24:44;;;;;;;;;;;26.50;93.20;;;;;;5096696;27;20297;-67
2023/04/19 02:27:11;;;;;;;;;;;26.80;92.70;;;;;;5080901;27;19912;-66
2023/04/19 02:29:38;;;;;;;;;;;26.80;92.10;;;;;;5083674;27;20276;-63
2023/04/19 02:32:05;;;;;;;;;;;26.70;92.00;;;;;;5097801;27;19912;-67
2023/04/19 02:34:33;;;;;;;;;;;26.90;91.40;;;;;;5102000;27;19911;-68
2023/04/19 02:37:00;;;;;;;;;;;27.10;91.50;;;;;;5090085;27;20249;-67
2023/04/19 02:39:26;;;;;;;;;;;27.70;90.80;;;;;;5087780;27;20117;-66
2023/04/19 02:41:53;;;;;;;;;;;28.50;90.00;;;;;;5088550;27;19931;-65
2023/04/19 02:44:20;;;;;;;;;;;29.60;87.30;;;;;;5090774;27;20025;-69
2023/04/19 02:46:52;;;;;;;;;;;30.40;84.20;;;;;;5079547;27;19916;-66
2023/04/19 02:49:19;;;;;;;;;;;31.50;82.60;;;;;;5089860;27;20284;-64
2023/04/19 02:51:46;;;;;;;;;;;32.60;78.80;;;;;;5092454;27;19912;-68
2023/04/19 02:54:13;;;;;;;;;;;33.50;75.70;;;;;;5096052;27;19988;-62
2023/04/19 02:56:40;;;;;;;;;;;34.20;73.30;;;;;;5101094;27;20388;-69
2023/04/19 02:59:06;;;;;;;;;;;34.80;71.70;;;;;;5110148;27;19912;-68
2023/04/19 03:01:33;;;;;;;;;;;35.70;70.30;;;;;;5074576;28;19912;-68
2023/04/19 03:04:00;;;;;;;;;;;36.20;67.70;;;;;;5092389;27;20094;-69
2023/04/19 03:06:26;;;;;;;;;;;36.20;67.60;;;;;;5112918;27;19915;-67
2023/04/19 03:08:53;;;;;;;;;;;37.40;67.40;;;;;;5105983;27;19907;-69
2023/04/19 03:11:20;;;;;;;;;;;37.90;64.00;;;;;;5091810;27;19912;-67
2023/04/19 03:13:47;;;;;;;;;;;37.70;62.50;;;;;;5099424;27;20044;-70
2023/04/19 03:16:13;;;;;;;;;;;38.00;63.40;;;;;;5110976;27;19907;-65
2023/04/19 03:18:40;;;;;;;;;;;37.90;60.70;;;;;;5101719;27;19952;-68
2023/04/19 03:21:08;;;;;;;;;;;38.20;61.00;;;;;;5099764;27;19916;-69
2023/04/19 03:23:35;;;;;;;;;;;37.80;60.10;;;;;;5102125;27;20056;-70
2023/04/19 03:26:01;;;;;;;;;;;38.20;60.70;;;;;;5092047;27;19912;-64
2023/04/19 03:28:28;;;;;;;;;;;38.80;58.00;;;;;;5086278;27;19911;-67
2023/04/19 03:30:54;;;;;;;;;;;38.90;58.60;;;;;;5107044;27;19933;-71
2023/04/19 03:33:21;;;;;;;;;;;38.90;60.00;;;;;;5087688;28;20318;-70
2023/04/19 03:35:48;;;;;;;;;;;39.50;59.40;;;;;;5110296;27;20088;-63
2023/04/19 03:38:14;;;;;;;;;;;39.00;58.60;;;;;;5115394;27;19908;-69
2023/04/19 03:40:41;;;;;;;;;;;38.20;58.80;;;;;;5104429;27;19914;-62
2023/04/19 03:43:08;;;;;;;;;;;38.70;59.80;;;;;;5114176;27;19908;-69
2023/04/19 03:45:35;;;;;;;;;;;39.30;57.60;;;;;;5107600;27;20361;-63
2023/04/19 03:48:01;;;;;;;;;;;39.60;58.10;;;;;;5096570;27;20425;-63
2023/04/19 03:50:28;;;;;;;;;;;39.90;57.00;;;;;;5102945;27;19911;-64
2023/04/19 03:52:54;;;;;;;;;;;39.90;58.40;;;;;;5106572;27;20052;-68
2023/04/19 03:55:21;;;;;;;;;;;40.00;57.90;;;;;;5102625;27;19998;-65
2023/04/19 03:57:48;;;;;;;;;;;39.00;58.40;;;;;;5101096;27;19995;-65
2023/04/19 04:00:15;;;;;;;;;;;39.10;59.60;;;;;;5099523;27;19969;-64
2023/04/19 04:02:42;;;;;;;;;;;38.80;59.90;;;;;;5108551;27;19912;-70
2023/04/19 04:05:08;;;;;;;;;;;38.80;59.80;;;;;;5103745;27;20313;-62
2023/04/19 04:07:35;;;;;;;;;;;38.80;59.40;;;;;;5095697;27;20288;-66
2023/04/19 04:10:02;;;;;;;;;;;38.90;59.70;;;;;;5095356;27;19923;-68
2023/04/19 04:12:28;;;;;;;;;;;38.50;58.90;;;;;;5112728;27;19912;-69
2023/04/19 04:14:55;;;;;;;;;;;37.10;60.80;;;;;;5104580;27;20678;-65
2023/04/19 04:17:23;;;;;;;;;;;35.60;63.40;;;;;;5102870;27;19912;-62
2023/04/19 04:19:49;;;;;;;;;;;34.00;65.90;;;;;;5112989;27;19912;-69
2023/04/19 04:22:16;;;;;;;;;;;32.30;68.80;;;;;;5100722;27;19911;-68
2023/04/19 04:24:43;;;;;;;;;;;31.20;71.10;;;;;;5108180;27;20010;-68
2023/04/19 04:27:10;;;;;;;;;;;30.70;72.90;;;;;;5097182;27;19967;-68
2023/04/19 04:29:37;;;;;;;;;;;30.60;73.50;;;;;;5106251;27;19913;-65
2023/04/19 04:32:09;;;;;;;;;;;30.30;73.60;;;;;;5101038;27;19907;-69
2023/04/19 04:34:36;;;;;;;;;;;29.80;73.90;;;;;;5095362;27;20322;-64
2023/04/19 04:37:03;;;;;;;;;;;29.50;76.10;;;;;;5106634;27;19908;-70
2023/04/19 04:39:30;;;;;;;;;;;30.20;76.30;;;;;;5110376;27;19908;-69
2023/04/19 04:41:59;;;;;;;;;;;31.80;72.80;;;;;;5099163;27;20087;-65
2023/04/19 04:44:26;;;;;;;;;;;33.60;70.80;;;;;;5112655;27;19971;-66
2023/04/19 04:46:53;;;;;;;;;;;35.10;67.20;;;;;;5096345;27;20276;-67
2023/04/19 04:49:19;;;;;;;;;;;36.10;64.90;;;;;;5098309;27;19916;-71
2023/04/19 04:51:46;;;;;;;;;;;36.50;63.80;;;;;;5089346;27;19938;-66
2023/04/19 04:54:13;;;;;;;;;;;36.70;64.20;;;;;;5102454;27;20044;-69
2023/04/19 04:56:39;;;;;;;;;;;36.40;63.30;;;;;;5112748;27;19907;-68
2023/04/19 04:59:06;;;;;;;;;;;36.80;63.50;;;;;;5104097;27;20556;-68
2023/04/19 05:01:33;;;;;;;;;;;37.50;62.00;;;;;;5096983;27;19908;-70
2023/04/19 05:04:00;;;;;;;;;;;37.70;62.40;;;;;;5079696;27;19920;-69
2023/04/19 05:06:26;;;;;;;;;;;37.70;62.10;;;;;;5087661;27;20014;-65
2023/04/19 05:08:53;;;;;;;;;;;37.90;62.30;;;;;;5082395;28;19920;-69
2023/04/19 05:11:20;;;;;;;;;;;37.80;61.60;;;;;;5083999;28;19912;-66
2023/04/19 05:13:46;;;;;;;;;;;38.10;61.50;;;;;;5107968;27;20409;-67
2023/04/19 05:16:13;;;;;;;;;;;38.50;60.70;;;;;;5102366;27;19959;-65
2023/04/19 05:18:40;;;;;;;;;;;38.70;60.30;;;;;;5102162;27;20064;-70
2023/04/19 05:21:09;;;;;;;;;;;38.60;60.70;;;;;;5112280;27;19930;-69
2023/04/19 05:23:36;;;;;;;;;;;39.00;60.10;;;;;;5093431;27;19953;-66
2023/04/19 05:26:03;;;;;;;;;;;39.40;59.60;;;;;;5110816;27;19917;-67
2023/04/19 05:28:30;;;;;;;;;;;38.80;60.80;;;;;;5098875;28;19961;-69
2023/04/19 05:30:56;;;;;;;;;;;38.90;59.80;;;;;;5112082;28;19934;-67
2023/04/19 05:33:23;;;;;;;;;;;38.70;59.30;;;;;;5103486;28;19918;-64
2023/04/19 05:35:50;;;;;;;;;;;38.50;60.80;;;;;;5094467;28;19908;-68
2023/04/19 05:38:17;;;;;;;;;;;38.20;60.40;;;;;;5108465;28;19908;-69
2023/04/19 05:40:44;;;;;;;;;;;38.10;60.30;;;;;;5093341;28;19959;-68
2023/04/19 05:43:10;;;;;;;;;;;38.10;60.40;;;;;;5092125;28;20597;-70
2023/04/19 05:45:37;;;;;;;;;;;38.30;60.60;;;;;;5102527;28;19923;-63
2023/04/19 05:48:04;;;;;;;;;;;38.90;60.50;;;;;;5102722;28;19915;-63
2023/04/19 05:50:31;;;;;;;;;;;38.70;59.70;;;;;;5111413;28;19958;-67
2023/04/19 05:52:57;;;;;;;;;;;38.70;59.90;;;;;;5094300;28;19907;-67
2023/04/19 05:55:24;;;;;;;;;;;38.40;59.80;;;;;;5104911;28;19941;-64
2023/04/19 05:57:51;;;;;;;;;;;38.00;60.30;;;;;;5078204;28;19984;-63
2023/04/19 06:00:17;;;;;;;;;;;37.90;60.60;;;;;;5075846;28;19908;-63
2023/04/19 06:02:44;;;;;;;;;;;37.80;61.10;;;;;;5085769;28;19956;-68
2023/04/19 06:05:11;;;;;;;;;;;37.60;60.20;;;;;;5097184;28;20494;-69
2023/04/19 06:07:37;;;;;;;;;;;37.50;60.40;;;;;;5094823;28;19951;-66
2023/04/19 06:10:05;;;;;;;;;;;37.30;60.50;;;;;;5088244;28;19920;-64
2023/04/19 06:12:31;;;;;;;;;;;37.40;60.70;;;;;;5081302;28;20459;-65
2023/04/19 06:14:58;;;;;;;;;;;36.60;61.00;;;;;;5089613;28;19926;-63
2023/04/19 06:17:25;;;;;;;;;;;36.40;61.70;;;;;;5087738;28;21018;-68
2023/04/19 06:19:52;;;;;;;;;;;36.10;62.10;;;;;;5079309;28;20357;-66
2023/04/19 06:22:18;;;;;;;;;;;35.30;63.40;;;;;;5078538;28;20326;-66
2023/04/19 06:24:46;;;;;;;;;;;35.10;63.80;;;;;;5090144;28;20549;-63
2023/04/19 06:27:12;;;;;;;;;;;34.60;64.40;;;;;;5100101;28;19915;-62
2023/04/19 06:29:39;;;;;;;;;;;34.20;64.40;;;;;;5080835;28;19912;-69
2023/04/19 06:32:06;;;;;;;;;;;33.90;65.00;;;;;;5099332;28;19922;-67
2023/04/19 06:34:33;;;;;;;;;;;33.60;65.10;;;;;;5086792;28;20007;-65
2023/04/19 06:37:00;;;;;;;;;;;33.00;65.90;;;;;;5083539;28;19916;-69
2023/04/19 06:39:27;;;;;;;;;;;32.50;67.20;;;;;;5095373;28;19915;-69
2023/04/19 06:41:54;;;;;;;;;;;31.60;68.30;;;;;;5085153;27;20144;-68
2023/04/19 06:44:20;;;;;;;;;;;30.70;70.30;;;;;;5093391;27;19923;-68
2023/04/19 06:46:47;;;;;;;;;;;30.60;70.90;;;;;;5108164;27;19915;-68
2023/04/19 06:49:14;;;;;;;;;;;30.00;71.40;;;;;;5089377;28;19916;-68
2023/04/19 06:51:41;;;;;;;;;;;29.30;73.10;;;;;;5099836;27;19907;-70
2023/04/19 06:54:07;;;;;;;;;;;28.30;74.80;;;;;;5104172;27;20411;-69
2023/04/19 06:56:44;;;;;;;;;;;27.20;77.40;;;;;;5112066;27;20920;-64
2023/04/19 06:59:15;;;;;;;;;;;26.60;79.40;;;;;;5099905;27;19911;-66
2023/04/19 07:01:42;;;;;;;;;;;26.10;80.60;;;;;;5094978;27;20388;-71
2023/04/19 07:04:09;;;;;;;;;;;25.60;82.00;;;;;;5098034;27;19952;-69
2023/04/19 07:06:36;;;;;;;;;;;25.20;83.30;;;;;;5091694;27;19916;-64
2023/04/19 07:09:03;;;;;;;;;;;24.80;84.10;;;;;;5092373;27;20283;-68
2023/04/19 07:11:30;;;;;;;;;;;24.50;85.30;;;;;;5116595;27;19907;-63
2023/04/19 07:13:58;;;;;;;;;;;24.10;86.30;;;;;;5102193;27;19915;-69
2023/04/19 07:16:25;;;;;;;;;;;23.80;87.00;;;;;;5110547;27;20189;-69
2023/04/19 07:18:52;;;;;;;;;;;23.70;87.90;;;;;;5096296;27;19912;-65
2023/04/19 07:21:19;;;;;;;;;;;23.40;88.90;;;;;;5082681;28;19923;-65
2023/04/19 07:23:45;;;;;;;;;;;23.30;89.80;;;;;;5104462;27;20068;-66
2023/04/19 07:26:13;;;;;;;;;;;23.20;90.10;;;;;;5107560;27;19930;-62
2023/04/19 07:28:40;;;;;;;;;;;23.10;90.10;;;;;;5107599;27;19920;-68
2023/04/19 07:31:07;;;;;;;;;;;23.00;90.30;;;;;;5111522;27;19907;-64
2023/04/19 07:33:33;;;;;;;;;;;22.80;90.40;;;;;;5102855;27;19980;-65
2023/04/19 07:36:00;;;;;;;;;;;22.80;90.70;;;;;;5111969;27;20133;-68
2023/04/19 07:38:27;;;;;;;;;;;22.70;90.90;;;;;;5098652;27;19907;-68
2023/04/19 07:40:54;;;;;;;;;;;22.60;91.50;;;;;;5093785;27;20311;-68
2023/04/19 07:43:20;;;;;;;;;;;22.60;91.40;;;;;;5110652;27;19915;-62
2023/04/19 07:45:47;;;;;;;;;;;22.50;91.40;;;;;;5101022;27;20257;-65
2023/04/19 07:48:14;;;;;;;;;;;22.40;91.60;;;;;;5109885;27;19953;-65
2023/04/19 07:50:40;;;;;;;;;;;22.30;91.90;;;;;;5109301;27;19916;-64
2023/04/19 07:53:07;;;;;;;;;;;22.30;92.10;;;;;;5102997;27;19907;-66
2023/04/19 07:55:34;;;;;;;;;;;22.20;92.10;;;;;;5115104;27;20339;-69
2023/04/19 07:58:01;;;;;;;;;;;22.10;92.30;;;;;;5095127;27;20571;-64
2023/04/19 08:00:28;;;;;;;;;;;22.20;92.60;;;;;;5109815;27;19979;-63
2023/04/19 08:02:56;;;;;;;;;;;22.10;92.40;;;;;;5109582;27;20006;-65
2023/04/19 08:05:22;;;;;;;;;;;22.10;92.70;;;;;;5091343;27;19927;-69
2023/04/19 08:07:51;;;;;;;;;;;22.10;93.10;;;;;;5077189;28;19915;-68
2023/04/19 08:10:17;;;;;;;;;;;22.10;93.10;;;;;;5058220;28;20299;-63
2023/04/19 08:12:44;;;;;;;;;;;22.10;93.30;;;;;;5078297;28;19915;-65
2023/04/19 08:15:11;;;;;;;;;;;21.90;93.30;;;;;;5076953;28;19912;-64
2023/04/19 08:17:40;;;;;;;;;;;21.90;93.50;;;;;;5078565;28;20322;-69
2023/04/19 08:20:07;;;;;;;;;;;21.90;93.70;;;;;;5075892;28;20080;-65
2023/04/19 08:22:34;;;;;;;;;;;21.80;93.80;;;;;;5086571;28;19908;-68
2023/04/19 08:25:00;;;;;;;;;;;21.90;94.00;;;;;;5086482;28;19920;-69
2023/04/19 08:27:27;;;;;;;;;;;21.90;94.20;;;;;;5077444;28;19908;-67
2023/04/19 08:29:54;;;;;;;;;;;21.90;94.30;;;;;;5078006;28;20174;-67
2023/04/19 08:32:20;;;;;;;;;;;21.90;94.30;;;;;;5095270;28;19914;-66
2023/04/19 08:34:48;;;;;;;;;;;21.80;94.30;;;;;;5098017;28;19996;-69
2023/04/19 08:37:14;;;;;;;;;;;21.80;94.40;;;;;;5097117;28;20360;-69
2023/04/19 08:39:41;;;;;;;;;;;21.80;94.50;;;;;;5098439;28;19981;-67
2023/04/19 08:42:08;;;;;;;;;;;21.80;94.50;;;;;;5095622;28;20002;-63
2023/04/19 08:44:39;;;;;;;;;;;21.70;94.70;;;;;;5097524;28;20393;-68
2023/04/19 08:47:06;;;;;;;;;;;21.70;94.90;;;;;;5096349;28;20006;-66
2023/04/19 08:49:38;;;;;;;;;;;21.60;95.20;;;;;;5097205;28;19907;-66
2023/04/19 08:52:07;;;;;;;;;;;21.60;95.40;;;;;;5096639;28;19942;-69
2023/04/19 08:54:35;;;;;;;;;;;21.60;95.60;;;;;;5097372;28;19960;-69
2023/04/19 08:57:02;;;;;;;;;;;21.60;95.90;;;;;;5096859;28;19915;-65
2023/04/19 08:59:29;;;;;;;;;;;21.50;96.10;;;;;;5078550;28;19907;-69
2023/04/19 09:01:58;;;;;;;;;;;21.50;96.40;;;;;;5097211;28;19954;-67
2023/04/19 09:04:24;;;;;;;;;;;21.60;96.60;;;;;;5096148;28;20240;-68
2023/04/19 09:06:51;;;;;;;;;;;21.60;96.80;;;;;;5098656;28;19908;-64
2023/04/19 09:09:19;;;;;;;;;;;21.60;97.00;;;;;;5096429;28;19951;-70
2023/04/19 09:11:46;;;;;;;;;;;21.60;97.20;;;;;;5097870;28;19918;-71
2023/04/19 09:14:17;;;;;;;;;;;21.50;97.50;;;;;;5095140;28;19908;-69
2023/04/19 09:16:44;;;;;;;;;;;21.60;97.60;;;;;;5096971;28;20109;-71
2023/04/19 09:19:16;;;;;;;;;;;21.60;97.80;;;;;;5095865;28;19912;-70
2023/04/19 09:21:43;;;;;;;;;;;21.60;98.20;;;;;;5097333;28;19908;-69
2023/04/19 09:24:10;;;;;;;;;;;21.50;98.40;;;;;;5095473;28;20000;-70
2023/04/19 09:26:37;;;;;;;;;;;21.50;98.70;;;;;;5096786;28;19907;-65
2023/04/19 09:29:04;;;;;;;;;;;21.50;98.80;;;;;;5096581;28;19908;-61
2023/04/19 09:31:32;;;;;;;;;;;21.50;99.00;;;;;;5095291;28;20036;-62
2023/04/19 09:34:19;;;;;;;;;;;21.40;99.30;;;;;;5096758;28;19908;-64
2023/04/19 09:36:47;;;;;;;;;;;21.40;99.50;;;;;;5096574;28;19916;-64
2023/04/19 09:39:27;;;;;;;;;;;21.40;99.80;;;;;;5095270;28;19989;-64
2023/04/19 09:41:54;;;;;;;;;;;21.30;99.90;;;;;;5097706;28;19945;-69
2023/04/19 09:44:21;;;;;;;;;;;21.30;99.90;;;;;;5095716;28;20291;-65
2023/04/19 09:46:50;;;;;;;;;;;21.30;99.90;;;;;;5097536;28;20360;-65
2023/04/19 09:49:22;;;;;;;;;;;21.30;99.90;;;;;;5094699;28;19908;-66
2023/04/19 09:51:50;;;;;;;;;;;21.30;99.90;;;;;;5096592;28;19908;-67
2023/04/19 09:54:18;;;;;;;;;;;21.30;99.90;;;;;;5095243;28;19908;-65
2023/04/19 09:56:44;;;;;;;;;;;21.20;99.90;;;;;;5097128;28;19907;-66
2023/04/19 09:59:12;;;;;;;;;;;21.20;99.90;;;;;;5096463;28;20375;-65
2023/04/19 10:01:46;;;;;;;;;;;21.20;99.90;;;;;;5098450;28;20089;-65
2023/04/19 10:04:21;;;;;;;;;;;21.10;99.90;;;;;;5100491;28;20306;-64
2023/04/19 10:06:49;;;;;;;;;;;21.10;99.90;;;;;;5101046;28;20132;-69
2023/04/19 10:09:17;;;;;;;;;;;21.10;99.90;;;;;;5099966;28;20011;-66
2023/04/19 10:11:47;;;;;;;;;;;21.20;99.90;;;;;;5100232;28;19960;-63
2023/04/19 10:14:15;;;;;;;;;;;21.10;99.90;;;;;;5100230;28;19915;-69
2023/04/19 10:16:41;;;;;;;;;;;21.00;99.90;;;;;;5100014;28;19908;-66
2023/04/19 10:19:09;;;;;;;;;;;20.90;99.90;;;;;;5100115;28;19912;-68
2023/04/19 10:21:37;;;;;;;;;;;21.00;99.90;;;;;;5099728;28;19908;-69
2023/04/19 10:24:04;;;;;;;;;;;20.90;99.90;;;;;;5100516;28;20330;-67
2023/04/19 10:26:50;;;;;;;;;;;20.80;99.90;;;;;;5099575;28;19955;-64
2023/04/19 10:29:37;;;;;;;;;;;20.80;99.90;;;;;;5099738;28;19908;-68
2023/04/19 10:32:04;;;;;;;;;;;20.70;99.90;;;;;;5101255;28;19961;-66
2023/04/19 10:34:39;;;;;;;;;;;20.70;99.90;;;;;;5099895;28;20124;-71
2023/04/19 10:37:09;;;;;;;;;;;20.70;99.90;;;;;;5101217;28;19961;-66
2023/04/19 10:39:43;;;;;;;;;;;20.70;99.90;;;;;;5099744;28;19933;-68
2023/04/19 10:42:11;;;;;;;;;;;20.70;99.90;;;;;;5100116;28;19908;-64
2023/04/19 10:44:38;;;;;;;;;;;20.60;99.90;;;;;;5098973;28;20386;-67
2023/04/19 10:47:05;;;;;;;;;;;20.50;99.90;;;;;;5101051;28;19991;-65
2023/04/19 10:49:43;;;;;;;;;;;20.50;99.90;;;;;;5093877;28;19953;-69
2023/04/19 10:52:26;;;;;;;;;;;20.40;99.90;;;;;;5100594;28;19912;-68
2023/04/19 10:54:56;;;;;;;;;;;20.40;99.90;;;;;;5099839;28;19953;-64
2023/04/19 10:57:24;;;;;;;;;;;20.30;99.90;;;;;;5099006;28;20006;-65
2023/04/19 11:00:09;;;;;;;;;;;20.30;99.90;;;;;;5078589;28;19919;-64
2023/04/19 11:02:36;;;;;;;;;;;20.20;99.90;;;;;;5078557;28;19934;-68
2023/04/19 11:05:03;;;;;;;;;;;20.10;99.90;;;;;;5061285;28;19916;-68
2023/04/19 11:07:35;;;;;;;;;;;20.00;99.90;;;;;;5077949;28;20011;-67
2023/04/19 11:10:02;;;;;;;;;;;20.00;99.90;;;;;;5099208;28;20352;-67
2023/04/19 11:12:29;;;;;;;;;;;19.90;99.90;;;;;;5097754;28;20645;-67
2023/04/19 11:14:58;;;;;;;;;;;19.90;99.90;;;;;;5099314;28;20391;-66
2023/04/19 11:17:27;;;;;;;;;;;20.00;99.90;;;;;;5098620;28;19911;-69
2023/04/19 11:20:01;;;;;;;;;;;20.00;99.90;;;;;;5098760;28;19966;-70
2023/04/19 11:22:59;;;;;;;;;;;19.90;99.90;;;;;;5098344;28;19915;-67
2023/04/19 11:25:26;;;;;;;;;;;19.80;99.90;;;;;;5098251;28;19967;-67
2023/04/19 11:27:54;;;;;;;;;;;19.80;99.90;;;;;;5097633;28;20319;-68
2023/04/19 11:30:30;;;;;;;;;;;19.70;99.90;;;;;;5098019;28;19911;-66
2023/04/19 11:33:00;;;;;;;;;;;19.70;99.90;;;;;;5098435;28;20228;-67
2023/04/19 11:35:29;;;;;;;;;;;19.70;99.90;;;;;;5098864;28;19908;-63
2023/04/19 11:37:56;;;;;;;;;;;19.60;99.90;;;;;;5098052;28;20429;-62
2023/04/19 11:40:24;;;;;;;;;;;19.50;99.90;;;;;;5098933;28;19966;-67
2023/04/19 11:42:55;;;;;;;;;;;19.50;99.90;;;;;;5097754;28;19961;-70
2023/04/19 11:45:28;;;;;;;;;;;19.50;99.90;;;;;;5098519;28;19920;-65
2023/04/19 11:47:55;;;;;;;;;;;19.40;99.90;;;;;;5097582;28;19907;-62
2023/04/19 11:50:36;;;;;;;;;;;19.40;99.90;;;;;;5098291;28;19934;-65
2023/04/19 11:53:15;;;;;;;;;;;19.30;99.90;;;;;;5098748;28;19908;-65
2023/04/19 11:55:43;;;;;;;;;;;19.30;99.90;;;;;;5097180;28;19908;-66
2023/04/19 11:58:22;;;;;;;;;;;19.20;99.90;;;;;;5098016;28;20153;-69
2023/04/19 12:00:48;;;;;;;;;;;19.20;99.90;;;;;;5097235;28;19955;-64
2023/04/19 12:03:15;;;;;;;;;;;19.20;99.90;;;;;;5099388;28;19912;-68
2023/04/19 12:05:58;;;;;;;;;;;19.20;99.90;;;;;;5096871;28;19962;-68
2023/04/19 12:08:35;;;;;;;;;;;19.10;99.90;;;;;;5097291;28;19961;-63
2023/04/19 12:11:02;;;;;;;;;;;19.10;99.90;;;;;;5098121;28;19908;-70
2023/04/19 12:13:32;;;;;;;;;;;19.00;99.90;;;;;;5097788;28;19914;-69
2023/04/19 12:15:59;;;;;;;;;;;19.00;99.90;;;;;;5097240;28;19957;-64
2023/04/19 12:18:26;;;;;;;;;;;19.00;99.90;;;;;;5097841;28;19907;-64
2023/04/19 12:20:52;;;;;;;;;;;19.00;99.90;;;;;;5097467;28;19908;-63
2023/04/19 12:23:20;;;;;;;;;;;19.00;99.90;;;;;;5098146;28;19916;-69
2023/04/19 12:25:47;;;;;;;;;;;18.90;99.90;;;;;;5096828;28;19924;-69
2023/04/19 12:28:15;;;;;;;;;;;18.90;99.90;;;;;;5095696;28;19908;-67
2023/04/19 12:30:42;;;;;;;;;;;18.90;99.90;;;;;;5089925;28;19916;-65
2023/04/19 12:33:09;;;;;;;;;;;18.90;99.90;;;;;;5096888;28;20002;-65
2023/04/19 12:35:37;;;;;;;;;;;18.90;99.90;;;;;;5097263;28;19912;-67
2023/04/19 12:38:03;;;;;;;;;;;18.90;99.90;;;;;;5097092;28;19914;-65
2023/04/19 12:40:30;;;;;;;;;;;19.00;99.90;;;;;;5097509;28;20033;-70
2023/04/19 12:42:57;;;;;;;;;;;19.00;99.90;;;;;;5089104;28;19919;-64
2023/04/19 12:45:23;;;;;;;;;;;19.00;99.90;;;;;;5078119;28;19920;-64
2023/04/19 12:47:50;;;;;;;;;;;19.10;99.90;;;;;;5096410;28;20007;-67
2023/04/19 12:50:17;;;;;;;;;;;19.10;99.90;;;;;;5097366;28;19961;-66
2023/04/19 12:52:44;;;;;;;;;;;19.10;99.90;;;;;;5096615;28;20360;-64
2023/04/19 12:55:11;;;;;;;;;;;19.20;99.90;;;;;;5097720;28;19911;-64
2023/04/19 12:57:38;;;;;;;;;;;19.30;99.90;;;;;;5097248;28;20267;-68
2023/04/19 13:00:06;;;;;;;;;;;19.40;99.90;;;;;;5095062;28;19915;-65
2023/04/19 13:02:35;;;;;;;;;;;19.40;99.90;;;;;;5096834;28;19912;-64
2023/04/19 13:05:04;;;;;;;;;;;19.50;99.90;;;;;;5096269;28;19916;-63
2023/04/19 13:07:30;;;;;;;;;;;19.50;99.90;;;;;;5098240;28;20333;-67
2023/04/19 13:09:57;;;;;;;;;;;19.60;99.90;;;;;;5097068;28;19908;-71
2023/04/19 13:12:24;;;;;;;;;;;19.70;99.90;;;;;;5097631;28;19914;-69
2023/04/19 13:14:51;;;;;;;;;;;19.70;99.90;;;;;;5095606;28;19915;-70
2023/04/19 13:17:18;;;;;;;;;;;19.70;99.90;;;;;;5079255;28;19970;-70
2023/04/19 13:19:48;;;;;;;;;;;19.70;99.90;;;;;;5096562;28;19907;-68
2023/04/19 13:22:15;;;;;;;;;;;19.70;99.90;;;;;;5078472;28;20399;-69
2023/04/19 13:24:41;;;;;;;;;;;19.70;99.90;;;;;;5096439;28;19948;-69
2023/04/19 13:27:08;;;;;;;;;;;19.70;99.90;;;;;;5096036;28;20265;-67
2023/04/19 13:29:35;;;;;;;;;;;19.70;99.90;;;;;;5097351;28;19908;-67
2023/04/19 13:32:01;;;;;;;;;;;19.70;99.90;;;;;;5095560;28;19911;-68
2023/04/19 13:34:28;;;;;;;;;;;19.70;99.90;;;;;;5076958;28;19991;-70
2023/04/19 13:36:56;;;;;;;;;;;19.60;99.90;;;;;;5074748;28;19908;-67
2023/04/19 13:39:23;;;;;;;;;;;19.60;99.90;;;;;;5058649;28;19945;-68
2023/04/19 13:41:49;;;;;;;;;;;19.60;99.90;;;;;;5075640;28;19916;-69
2023/04/19 13:44:16;;;;;;;;;;;19.60;99.90;;;;;;5076029;28;19971;-70
2023/04/19 13:46:42;;;;;;;;;;;19.50;99.90;;;;;;5076136;28;19915;-71
2023/04/19 13:49:09;;;;;;;;;;;19.50;99.90;;;;;;5057190;28;19912;-68
2023/04/19 13:51:36;;;;;;;;;;;19.50;99.90;;;;;;5077093;28;19908;-68
2023/04/19 13:54:02;;;;;;;;;;;19.50;99.90;;;;;;5075779;28;19916;-70
2023/04/19 13:56:29;;;;;;;;;;;19.50;99.90;;;;;;5076721;28;19947;-70
2023/04/19 13:58:56;;;;;;;;;;;19.50;99.90;;;;;;5074845;28;19958;-64
2023/04/19 14:01:22;;;;;;;;;;;19.50;99.90;;;;;;5076378;28;19961;-69
2023/04/19 14:03:49;;;;;;;;;;;19.40;99.90;;;;;;5096008;28;19912;-69
2023/04/19 14:06:16;;;;;;;;;;;19.50;99.90;;;;;;5076991;28;20379;-68
2023/04/19 14:08:43;;;;;;;;;;;19.40;99.90;;;;;;5078703;28;19951;-65
2023/04/19 14:11:09;;;;;;;;;;;19.40;99.90;;;;;;5096000;28;19908;-68
2023/04/19 14:13:36;;;;;;;;;;;19.50;99.90;;;;;;5084831;28;19919;-67
2023/04/19 14:16:03;;;;;;;;;;;19.50;99.90;;;;;;5074713;28;19913;-69
2023/04/19 14:18:30;;;;;;;;;;;19.50;99.90;;;;;;5076604;28;19994;-69